Startpagina
METAR-TAF:

METAR-TAF

Vliegvelden :

Aeropuerto Antonio Roldán Betancourt

Apartadó, Colombia

breedte: 07-49N, lengte: 076-42W, hoogte: 20 m

Actueel weer

Dit bericht is 3 uur en het 52 minuten geleden gemaakt, om 23:00 UTC
Weinig wind
Temperatuur 29°C
Vochtigheid 79%
Druk 1009 hPa
Zicht 10 km of meer
Verspreide wolken op 2000 ft

METAR: SKLC 032300Z 00000KT 9999 SCT020 29/25 A2981

Tijdstip: 21:52 (02:52 UTC)


TAF: ontbreekt

Waarnemingen en weersverwachtingen van meer dan 4000 vliegvelden (METAR en TAF).

De beschikbare stations zijn de gele en rode punten op de kaart.

Ga met uw muis naar het station om de naam te zien.

Klik dan om waarnemingen en weersverwachtingen te zien.

kaart wijzigen: klik op de groene knoppen met een zwart kruis om in te zoomen, op de groene knop met een streepje om uit te zoomen of op de groene pijlen voor aangrenzende kaarten.


METAR-TAF: